sensor_id;sensor_type;location;lat;lon;timestamp;P1;durP1;ratioP1;P2;durP2;ratioP2
8572;SDS011;4324;42.012;24.872;2024-03-08T00:00:15;31.57;;;27.03;;
8572;SDS011;4324;42.012;24.872;2024-03-08T00:02:43;35.20;;;25.17;;
8572;SDS011;4324;42.012;24.872;2024-03-08T00:05:11;31.87;;;26.53;;
8572;SDS011;4324;42.012;24.872;2024-03-08T00:07:40;34.67;;;27.27;;
8572;SDS011;4324;42.012;24.872;2024-03-08T00:10:08;31.37;;;26.40;;
8572;SDS011;4324;42.012;24.872;2024-03-08T00:12:37;33.77;;;25.27;;
8572;SDS011;4324;42.012;24.872;2024-03-08T00:15:04;35.57;;;25.90;;
8572;SDS011;4324;42.012;24.872;2024-03-08T00:17:32;34.40;;;26.43;;
8572;SDS011;4324;42.012;24.872;2024-03-08T00:19:59;32.30;;;26.40;;
8572;SDS011;4324;42.012;24.872;2024-03-08T00:22:28;31.87;;;26.70;;
8572;SDS011;4324;42.012;24.872;2024-03-08T00:24:57;30.57;;;25.57;;
8572;SDS011;4324;42.012;24.872;2024-03-08T00:27:24;32.67;;;25.23;;
8572;SDS011;4324;42.012;24.872;2024-03-08T00:29:51;33.57;;;26.50;;
8572;SDS011;4324;42.012;24.872;2024-03-08T00:32:18;27.23;;;24.30;;
8572;SDS011;4324;42.012;24.872;2024-03-08T00:34:45;30.40;;;26.37;;
8572;SDS011;4324;42.012;24.872;2024-03-08T00:37:12;31.00;;;24.93;;
8572;SDS011;4324;42.012;24.872;2024-03-08T00:39:39;29.07;;;24.03;;
8572;SDS011;4324;42.012;24.872;2024-03-08T00:42:07;31.57;;;25.10;;
8572;SDS011;4324;42.012;24.872;2024-03-08T00:44:34;32.90;;;25.83;;
8572;SDS011;4324;42.012;24.872;2024-03-08T00:47:01;31.67;;;25.93;;
8572;SDS011;4324;42.012;24.872;2024-03-08T00:49:28;33.17;;;25.03;;
8572;SDS011;4324;42.012;24.872;2024-03-08T00:51:55;29.40;;;26.20;;
8572;SDS011;4324;42.012;24.872;2024-03-08T00:54:22;28.53;;;25.27;;
8572;SDS011;4324;42.012;24.872;2024-03-08T00:56:49;34.20;;;25.77;;
8572;SDS011;4324;42.012;24.872;2024-03-08T00:59:18;30.90;;;25.53;;
8572;SDS011;4324;42.012;24.872;2024-03-08T01:01:45;33.80;;;25.83;;
8572;SDS011;4324;42.012;24.872;2024-03-08T01:04:11;31.47;;;25.27;;
8572;SDS011;4324;42.012;24.872;2024-03-08T01:06:38;31.23;;;24.50;;
8572;SDS011;4324;42.012;24.872;2024-03-08T01:09:05;31.23;;;25.57;;
8572;SDS011;4324;42.012;24.872;2024-03-08T01:11:32;29.70;;;25.70;;
8572;SDS011;4324;42.012;24.872;2024-03-08T01:14:00;32.97;;;25.30;;
8572;SDS011;4324;42.012;24.872;2024-03-08T01:16:28;31.40;;;25.33;;
8572;SDS011;4324;42.012;24.872;2024-03-08T01:18:56;29.90;;;24.57;;
8572;SDS011;4324;42.012;24.872;2024-03-08T01:21:23;30.97;;;25.63;;
8572;SDS011;4324;42.012;24.872;2024-03-08T01:23:49;29.53;;;24.10;;
8572;SDS011;4324;42.012;24.872;2024-03-08T01:26:16;30.97;;;24.93;;
8572;SDS011;4324;42.012;24.872;2024-03-08T01:28:43;30.87;;;25.63;;
8572;SDS011;4324;42.012;24.872;2024-03-08T01:31:10;30.80;;;24.03;;
8572;SDS011;4324;42.012;24.872;2024-03-08T01:33:38;33.90;;;25.87;;
8572;SDS011;4324;42.012;24.872;2024-03-08T01:36:05;30.07;;;24.60;;
8572;SDS011;4324;42.012;24.872;2024-03-08T01:38:32;29.93;;;24.83;;
8572;SDS011;4324;42.012;24.872;2024-03-08T01:41:01;34.53;;;25.40;;
8572;SDS011;4324;42.012;24.872;2024-03-08T01:43:29;35.03;;;26.80;;
8572;SDS011;4324;42.012;24.872;2024-03-08T01:45:56;34.43;;;26.40;;
8572;SDS011;4324;42.012;24.872;2024-03-08T01:48:25;32.53;;;25.30;;
8572;SDS011;4324;42.012;24.872;2024-03-08T01:50:54;32.10;;;25.13;;
8572;SDS011;4324;42.012;24.872;2024-03-08T01:53:22;30.83;;;24.60;;
8572;SDS011;4324;42.012;24.872;2024-03-08T01:55:51;33.13;;;25.87;;
8572;SDS011;4324;42.012;24.872;2024-03-08T01:58:22;30.90;;;25.53;;
8572;SDS011;4324;42.012;24.872;2024-03-08T02:00:49;31.07;;;26.27;;
8572;SDS011;4324;42.012;24.872;2024-03-08T02:03:16;31.83;;;26.43;;
8572;SDS011;4324;42.012;24.872;2024-03-08T02:05:43;28.73;;;23.73;;
8572;SDS011;4324;42.012;24.872;2024-03-08T02:08:12;28.60;;;24.57;;
8572;SDS011;4324;42.012;24.872;2024-03-08T02:10:39;30.37;;;24.60;;
8572;SDS011;4324;42.012;24.872;2024-03-08T02:13:07;29.30;;;24.67;;
8572;SDS011;4324;42.012;24.872;2024-03-08T02:15:50;28.53;;;23.80;;
8572;SDS011;4324;42.012;24.872;2024-03-08T02:18:17;28.97;;;24.13;;
8572;SDS011;4324;42.012;24.872;2024-03-08T02:20:46;28.80;;;23.13;;
8572;SDS011;4324;42.012;24.872;2024-03-08T02:23:13;27.70;;;23.50;;
8572;SDS011;4324;42.012;24.872;2024-03-08T02:25:41;28.93;;;24.77;;
8572;SDS011;4324;42.012;24.872;2024-03-08T02:28:08;26.63;;;23.47;;
8572;SDS011;4324;42.012;24.872;2024-03-08T02:30:36;28.57;;;23.97;;
8572;SDS011;4324;42.012;24.872;2024-03-08T02:33:03;30.30;;;24.10;;
8572;SDS011;4324;42.012;24.872;2024-03-08T02:35:31;29.57;;;23.97;;
8572;SDS011;4324;42.012;24.872;2024-03-08T02:37:59;28.43;;;23.53;;
8572;SDS011;4324;42.012;24.872;2024-03-08T02:40:26;28.37;;;24.23;;
8572;SDS011;4324;42.012;24.872;2024-03-08T02:42:53;26.97;;;22.30;;
8572;SDS011;4324;42.012;24.872;2024-03-08T02:45:20;27.50;;;23.57;;
8572;SDS011;4324;42.012;24.872;2024-03-08T02:47:47;27.60;;;23.77;;
8572;SDS011;4324;42.012;24.872;2024-03-08T02:50:14;27.27;;;23.67;;
8572;SDS011;4324;42.012;24.872;2024-03-08T02:52:42;25.73;;;21.80;;
8572;SDS011;4324;42.012;24.872;2024-03-08T02:55:13;26.63;;;22.50;;
8572;SDS011;4324;42.012;24.872;2024-03-08T02:57:41;24.87;;;22.07;;
8572;SDS011;4324;42.012;24.872;2024-03-08T03:00:09;25.53;;;21.60;;
8572;SDS011;4324;42.012;24.872;2024-03-08T03:02:38;29.30;;;23.57;;
8572;SDS011;4324;42.012;24.872;2024-03-08T03:05:05;28.73;;;22.43;;
8572;SDS011;4324;42.012;24.872;2024-03-08T03:07:34;28.83;;;23.40;;
8572;SDS011;4324;42.012;24.872;2024-03-08T03:10:02;26.53;;;22.93;;
8572;SDS011;4324;42.012;24.872;2024-03-08T03:12:31;23.57;;;21.07;;
8572;SDS011;4324;42.012;24.872;2024-03-08T03:14:59;24.70;;;21.03;;
8572;SDS011;4324;42.012;24.872;2024-03-08T03:17:26;24.33;;;21.37;;
8572;SDS011;4324;42.012;24.872;2024-03-08T03:19:54;22.63;;;20.13;;
8572;SDS011;4324;42.012;24.872;2024-03-08T03:22:21;23.77;;;20.33;;
8572;SDS011;4324;42.012;24.872;2024-03-08T03:24:48;24.47;;;19.57;;
8572;SDS011;4324;42.012;24.872;2024-03-08T03:27:16;22.00;;;19.70;;
8572;SDS011;4324;42.012;24.872;2024-03-08T03:29:46;22.07;;;19.23;;
8572;SDS011;4324;42.012;24.872;2024-03-08T03:32:14;21.10;;;18.70;;
8572;SDS011;4324;42.012;24.872;2024-03-08T03:34:44;21.77;;;19.20;;
8572;SDS011;4324;42.012;24.872;2024-03-08T03:37:11;20.20;;;18.03;;
8572;SDS011;4324;42.012;24.872;2024-03-08T03:39:38;20.70;;;18.50;;
8572;SDS011;4324;42.012;24.872;2024-03-08T03:42:14;19.27;;;17.17;;
8572;SDS011;4324;42.012;24.872;2024-03-08T03:44:41;18.67;;;16.67;;
8572;SDS011;4324;42.012;24.872;2024-03-08T03:47:11;18.47;;;16.47;;
8572;SDS011;4324;42.012;24.872;2024-03-08T03:49:38;20.90;;;18.23;;
8572;SDS011;4324;42.012;24.872;2024-03-08T03:52:05;19.73;;;17.67;;
8572;SDS011;4324;42.012;24.872;2024-03-08T03:54:32;18.60;;;16.77;;
8572;SDS011;4324;42.012;24.872;2024-03-08T03:56:59;16.93;;;15.13;;
8572;SDS011;4324;42.012;24.872;2024-03-08T03:59:28;18.03;;;16.13;;
8572;SDS011;4324;42.012;24.872;2024-03-08T04:01:55;19.03;;;15.40;;
8572;SDS011;4324;42.012;24.872;2024-03-08T04:04:23;19.30;;;16.97;;
8572;SDS011;4324;42.012;24.872;2024-03-08T04:06:50;21.40;;;17.93;;
8572;SDS011;4324;42.012;24.872;2024-03-08T04:09:17;24.90;;;18.73;;
8572;SDS011;4324;42.012;24.872;2024-03-08T04:11:44;23.97;;;19.43;;
8572;SDS011;4324;42.012;24.872;2024-03-08T04:14:11;23.53;;;19.27;;
8572;SDS011;4324;42.012;24.872;2024-03-08T04:16:38;23.60;;;19.77;;
8572;SDS011;4324;42.012;24.872;2024-03-08T04:19:05;25.50;;;20.90;;
8572;SDS011;4324;42.012;24.872;2024-03-08T04:21:33;26.47;;;21.30;;
8572;SDS011;4324;42.012;24.872;2024-03-08T04:24:00;28.33;;;22.37;;
8572;SDS011;4324;42.012;24.872;2024-03-08T04:26:27;27.60;;;22.47;;
8572;SDS011;4324;42.012;24.872;2024-03-08T04:28:54;26.80;;;22.57;;
8572;SDS011;4324;42.012;24.872;2024-03-08T04:31:20;30.67;;;23.93;;
8572;SDS011;4324;42.012;24.872;2024-03-08T04:33:47;33.27;;;24.00;;
8572;SDS011;4324;42.012;24.872;2024-03-08T04:36:14;31.13;;;23.93;;
8572;SDS011;4324;42.012;24.872;2024-03-08T04:38:43;31.93;;;24.77;;
8572;SDS011;4324;42.012;24.872;2024-03-08T04:41:11;29.67;;;23.47;;
8572;SDS011;4324;42.012;24.872;2024-03-08T04:43:38;29.23;;;23.40;;
8572;SDS011;4324;42.012;24.872;2024-03-08T04:46:05;30.27;;;24.57;;
8572;SDS011;4324;42.012;24.872;2024-03-08T04:48:31;31.10;;;23.93;;
8572;SDS011;4324;42.012;24.872;2024-03-08T04:50:58;30.37;;;23.50;;
8572;SDS011;4324;42.012;24.872;2024-03-08T04:53:25;32.13;;;23.97;;
8572;SDS011;4324;42.012;24.872;2024-03-08T04:55:53;27.70;;;21.37;;
8572;SDS011;4324;42.012;24.872;2024-03-08T04:58:23;29.40;;;22.87;;
8572;SDS011;4324;42.012;24.872;2024-03-08T05:00:49;29.07;;;22.00;;
8572;SDS011;4324;42.012;24.872;2024-03-08T05:03:17;27.43;;;22.20;;
8572;SDS011;4324;42.012;24.872;2024-03-08T05:05:43;30.73;;;22.83;;
8572;SDS011;4324;42.012;24.872;2024-03-08T05:08:10;30.13;;;23.37;;
8572;SDS011;4324;42.012;24.872;2024-03-08T05:10:37;29.47;;;23.80;;
8572;SDS011;4324;42.012;24.872;2024-03-08T05:13:05;31.57;;;24.27;;
8572;SDS011;4324;42.012;24.872;2024-03-08T05:15:32;31.83;;;25.63;;
8572;SDS011;4324;42.012;24.872;2024-03-08T05:18:00;33.43;;;24.63;;
8572;SDS011;4324;42.012;24.872;2024-03-08T05:20:27;29.63;;;22.73;;
8572;SDS011;4324;42.012;24.872;2024-03-08T05:22:54;28.93;;;23.13;;
8572;SDS011;4324;42.012;24.872;2024-03-08T05:25:22;28.37;;;21.53;;
8572;SDS011;4324;42.012;24.872;2024-03-08T05:27:49;27.67;;;21.67;;
8572;SDS011;4324;42.012;24.872;2024-03-08T05:30:17;31.60;;;24.07;;
8572;SDS011;4324;42.012;24.872;2024-03-08T05:32:46;28.30;;;22.77;;
8572;SDS011;4324;42.012;24.872;2024-03-08T05:35:13;30.23;;;23.87;;
8572;SDS011;4324;42.012;24.872;2024-03-08T05:37:41;29.27;;;24.47;;
8572;SDS011;4324;42.012;24.872;2024-03-08T05:40:08;28.77;;;22.13;;
8572;SDS011;4324;42.012;24.872;2024-03-08T05:42:35;29.27;;;22.77;;
8572;SDS011;4324;42.012;24.872;2024-03-08T05:45:02;27.47;;;23.00;;
8572;SDS011;4324;42.012;24.872;2024-03-08T05:47:32;30.07;;;22.03;;
8572;SDS011;4324;42.012;24.872;2024-03-08T05:49:59;30.10;;;22.57;;
8572;SDS011;4324;42.012;24.872;2024-03-08T05:52:26;32.77;;;23.07;;
8572;SDS011;4324;42.012;24.872;2024-03-08T05:54:53;28.00;;;22.00;;
8572;SDS011;4324;42.012;24.872;2024-03-08T05:57:20;27.77;;;23.27;;
8572;SDS011;4324;42.012;24.872;2024-03-08T05:59:48;28.17;;;21.90;;
8572;SDS011;4324;42.012;24.872;2024-03-08T06:02:15;30.00;;;23.03;;
8572;SDS011;4324;42.012;24.872;2024-03-08T06:04:46;33.80;;;25.83;;
8572;SDS011;4324;42.012;24.872;2024-03-08T06:07:13;26.43;;;22.20;;
8572;SDS011;4324;42.012;24.872;2024-03-08T06:09:40;32.17;;;24.60;;
8572;SDS011;4324;42.012;24.872;2024-03-08T06:12:10;29.70;;;22.17;;
8572;SDS011;4324;42.012;24.872;2024-03-08T06:14:37;26.67;;;21.60;;
8572;SDS011;4324;42.012;24.872;2024-03-08T06:17:04;26.97;;;21.80;;
8572;SDS011;4324;42.012;24.872;2024-03-08T06:19:32;30.10;;;22.93;;
8572;SDS011;4324;42.012;24.872;2024-03-08T06:22:00;29.80;;;23.03;;
8572;SDS011;4324;42.012;24.872;2024-03-08T06:24:30;27.73;;;22.70;;
8572;SDS011;4324;42.012;24.872;2024-03-08T06:26:57;29.03;;;22.80;;
8572;SDS011;4324;42.012;24.872;2024-03-08T06:29:24;32.40;;;25.00;;
8572;SDS011;4324;42.012;24.872;2024-03-08T06:31:51;31.43;;;24.63;;
8572;SDS011;4324;42.012;24.872;2024-03-08T06:34:18;30.03;;;23.13;;
8572;SDS011;4324;42.012;24.872;2024-03-08T06:36:45;33.73;;;25.07;;
8572;SDS011;4324;42.012;24.872;2024-03-08T06:39:13;30.20;;;24.80;;
8572;SDS011;4324;42.012;24.872;2024-03-08T06:41:40;29.07;;;23.03;;
8572;SDS011;4324;42.012;24.872;2024-03-08T06:44:09;33.10;;;24.70;;
8572;SDS011;4324;42.012;24.872;2024-03-08T06:46:36;28.97;;;23.97;;
8572;SDS011;4324;42.012;24.872;2024-03-08T06:49:04;42.50;;;32.47;;
8572;SDS011;4324;42.012;24.872;2024-03-08T06:51:32;32.53;;;24.67;;
8572;SDS011;4324;42.012;24.872;2024-03-08T06:53:59;33.50;;;26.57;;
8572;SDS011;4324;42.012;24.872;2024-03-08T06:56:28;30.60;;;25.07;;
8572;SDS011;4324;42.012;24.872;2024-03-08T06:58:55;39.30;;;26.23;;
8572;SDS011;4324;42.012;24.872;2024-03-08T07:01:22;31.37;;;25.73;;
8572;SDS011;4324;42.012;24.872;2024-03-08T07:03:48;29.77;;;25.00;;
8572;SDS011;4324;42.012;24.872;2024-03-08T07:06:17;40.17;;;31.77;;
8572;SDS011;4324;42.012;24.872;2024-03-08T07:08:45;31.73;;;25.27;;
8572;SDS011;4324;42.012;24.872;2024-03-08T07:11:12;31.63;;;27.10;;
8572;SDS011;4324;42.012;24.872;2024-03-08T07:13:42;31.73;;;23.57;;
8572;SDS011;4324;42.012;24.872;2024-03-08T07:16:09;28.70;;;23.97;;
8572;SDS011;4324;42.012;24.872;2024-03-08T07:18:37;35.87;;;29.63;;
8572;SDS011;4324;42.012;24.872;2024-03-08T07:21:05;36.00;;;28.47;;
8572;SDS011;4324;42.012;24.872;2024-03-08T07:23:31;34.70;;;27.30;;
8572;SDS011;4324;42.012;24.872;2024-03-08T07:26:15;33.00;;;26.50;;
8572;SDS011;4324;42.012;24.872;2024-03-08T07:28:43;35.33;;;26.97;;
8572;SDS011;4324;42.012;24.872;2024-03-08T07:31:10;32.70;;;24.33;;
8572;SDS011;4324;42.012;24.872;2024-03-08T07:33:46;38.57;;;31.07;;
8572;SDS011;4324;42.012;24.872;2024-03-08T07:36:15;37.70;;;27.87;;
8572;SDS011;4324;42.012;24.872;2024-03-08T07:38:42;35.80;;;28.17;;
8572;SDS011;4324;42.012;24.872;2024-03-08T07:41:11;39.60;;;29.60;;
8572;SDS011;4324;42.012;24.872;2024-03-08T07:43:38;41.43;;;32.70;;
8572;SDS011;4324;42.012;24.872;2024-03-08T07:46:05;37.13;;;29.50;;
8572;SDS011;4324;42.012;24.872;2024-03-08T07:48:32;33.53;;;28.43;;
8572;SDS011;4324;42.012;24.872;2024-03-08T07:50:59;36.27;;;28.63;;
8572;SDS011;4324;42.012;24.872;2024-03-08T07:53:25;39.13;;;31.27;;
8572;SDS011;4324;42.012;24.872;2024-03-08T07:55:52;49.53;;;38.30;;
8572;SDS011;4324;42.012;24.872;2024-03-08T07:58:19;69.50;;;48.90;;
8572;SDS011;4324;42.012;24.872;2024-03-08T08:00:46;71.80;;;47.87;;
8572;SDS011;4324;42.012;24.872;2024-03-08T08:03:15;47.00;;;33.40;;
8572;SDS011;4324;42.012;24.872;2024-03-08T08:05:46;43.93;;;33.43;;
8572;SDS011;4324;42.012;24.872;2024-03-08T08:08:14;76.23;;;54.57;;
8572;SDS011;4324;42.012;24.872;2024-03-08T08:10:41;43.60;;;34.83;;
8572;SDS011;4324;42.012;24.872;2024-03-08T08:13:08;38.37;;;31.47;;
8572;SDS011;4324;42.012;24.872;2024-03-08T08:15:34;40.07;;;33.27;;
8572;SDS011;4324;42.012;24.872;2024-03-08T08:18:01;34.53;;;29.97;;
8572;SDS011;4324;42.012;24.872;2024-03-08T08:20:32;65.03;;;47.77;;
8572;SDS011;4324;42.012;24.872;2024-03-08T08:22:59;31.93;;;25.87;;
8572;SDS011;4324;42.012;24.872;2024-03-08T08:25:26;29.53;;;24.50;;
8572;SDS011;4324;42.012;24.872;2024-03-08T08:27:52;29.57;;;24.73;;
8572;SDS011;4324;42.012;24.872;2024-03-08T08:30:19;31.07;;;25.67;;
8572;SDS011;4324;42.012;24.872;2024-03-08T08:32:46;35.83;;;30.53;;
8572;SDS011;4324;42.012;24.872;2024-03-08T08:35:13;32.60;;;26.03;;
8572;SDS011;4324;42.012;24.872;2024-03-08T08:37:42;35.47;;;30.70;;
8572;SDS011;4324;42.012;24.872;2024-03-08T08:40:09;34.43;;;28.10;;
8572;SDS011;4324;42.012;24.872;2024-03-08T08:42:39;31.10;;;26.07;;
8572;SDS011;4324;42.012;24.872;2024-03-08T08:45:07;41.33;;;34.93;;
8572;SDS011;4324;42.012;24.872;2024-03-08T08:47:34;67.40;;;50.67;;
8572;SDS011;4324;42.012;24.872;2024-03-08T08:50:02;52.83;;;39.10;;
8572;SDS011;4324;42.012;24.872;2024-03-08T08:52:31;35.33;;;28.80;;
8572;SDS011;4324;42.012;24.872;2024-03-08T08:55:01;34.10;;;25.27;;
8572;SDS011;4324;42.012;24.872;2024-03-08T08:57:29;28.97;;;24.00;;
8572;SDS011;4324;42.012;24.872;2024-03-08T08:59:58;36.63;;;31.70;;
8572;SDS011;4324;42.012;24.872;2024-03-08T09:02:25;23.20;;;20.30;;
8572;SDS011;4324;42.012;24.872;2024-03-08T09:04:52;23.47;;;20.97;;
8572;SDS011;4324;42.012;24.872;2024-03-08T09:07:19;32.43;;;27.77;;
8572;SDS011;4324;42.012;24.872;2024-03-08T09:09:45;25.33;;;21.13;;
8572;SDS011;4324;42.012;24.872;2024-03-08T09:12:14;23.50;;;20.97;;
8572;SDS011;4324;42.012;24.872;2024-03-08T09:14:41;20.63;;;18.30;;
8572;SDS011;4324;42.012;24.872;2024-03-08T09:17:07;25.33;;;22.63;;
8572;SDS011;4324;42.012;24.872;2024-03-08T09:19:34;46.13;;;38.10;;
8572;SDS011;4324;42.012;24.872;2024-03-08T09:22:01;37.93;;;32.13;;
8572;SDS011;4324;42.012;24.872;2024-03-08T09:24:29;37.63;;;30.77;;
8572;SDS011;4324;42.012;24.872;2024-03-08T09:26:56;26.23;;;22.47;;
8572;SDS011;4324;42.012;24.872;2024-03-08T09:29:26;36.50;;;28.13;;
8572;SDS011;4324;42.012;24.872;2024-03-08T09:31:53;25.33;;;21.83;;
8572;SDS011;4324;42.012;24.872;2024-03-08T09:34:20;22.87;;;20.00;;
8572;SDS011;4324;42.012;24.872;2024-03-08T09:36:47;18.90;;;16.50;;
8572;SDS011;4324;42.012;24.872;2024-03-08T09:39:14;19.50;;;17.37;;
8572;SDS011;4324;42.012;24.872;2024-03-08T09:41:42;23.53;;;20.03;;
8572;SDS011;4324;42.012;24.872;2024-03-08T09:44:10;23.43;;;19.77;;
8572;SDS011;4324;42.012;24.872;2024-03-08T09:46:38;29.93;;;24.37;;
8572;SDS011;4324;42.012;24.872;2024-03-08T09:49:08;14.80;;;13.30;;
8572;SDS011;4324;42.012;24.872;2024-03-08T09:51:36;15.30;;;13.80;;
8572;SDS011;4324;42.012;24.872;2024-03-08T09:54:06;19.17;;;16.93;;
8572;SDS011;4324;42.012;24.872;2024-03-08T09:56:33;14.40;;;12.93;;
8572;SDS011;4324;42.012;24.872;2024-03-08T09:59:01;14.43;;;12.43;;
8572;SDS011;4324;42.012;24.872;2024-03-08T10:02:07;14.70;;;13.10;;
8572;SDS011;4324;42.012;24.872;2024-03-08T10:04:41;19.37;;;17.37;;
8572;SDS011;4324;42.012;24.872;2024-03-08T10:07:08;13.90;;;12.50;;
8572;SDS011;4324;42.012;24.872;2024-03-08T10:09:35;16.17;;;14.57;;
8572;SDS011;4324;42.012;24.872;2024-03-08T10:12:02;14.60;;;13.17;;
8572;SDS011;4324;42.012;24.872;2024-03-08T10:14:30;15.87;;;14.27;;
8572;SDS011;4324;42.012;24.872;2024-03-08T10:16:58;16.73;;;15.03;;
8572;SDS011;4324;42.012;24.872;2024-03-08T10:19:27;17.13;;;15.33;;
8572;SDS011;4324;42.012;24.872;2024-03-08T10:21:55;14.77;;;13.30;;
8572;SDS011;4324;42.012;24.872;2024-03-08T10:24:23;14.43;;;12.93;;
8572;SDS011;4324;42.012;24.872;2024-03-08T10:26:53;17.57;;;15.50;;
8572;SDS011;4324;42.012;24.872;2024-03-08T10:29:25;16.93;;;15.13;;
8572;SDS011;4324;42.012;24.872;2024-03-08T10:31:51;14.83;;;13.37;;
8572;SDS011;4324;42.012;24.872;2024-03-08T10:34:18;14.90;;;13.30;;
8572;SDS011;4324;42.012;24.872;2024-03-08T10:36:47;13.67;;;12.30;;
8572;SDS011;4324;42.012;24.872;2024-03-08T10:39:22;14.73;;;11.40;;
8572;SDS011;4324;42.012;24.872;2024-03-08T10:41:52;14.33;;;12.90;;
8572;SDS011;4324;42.012;24.872;2024-03-08T10:44:26;14.33;;;12.83;;
8572;SDS011;4324;42.012;24.872;2024-03-08T10:47:07;13.47;;;11.90;;
8572;SDS011;4324;42.012;24.872;2024-03-08T10:49:44;15.90;;;14.30;;
8572;SDS011;4324;42.012;24.872;2024-03-08T10:52:22;13.83;;;12.30;;
8572;SDS011;4324;42.012;24.872;2024-03-08T10:54:50;13.37;;;12.03;;
8572;SDS011;4324;42.012;24.872;2024-03-08T10:57:21;13.30;;;11.97;;
8572;SDS011;4324;42.012;24.872;2024-03-08T10:59:49;14.47;;;13.03;;
8572;SDS011;4324;42.012;24.872;2024-03-08T11:02:19;20.40;;;17.03;;
8572;SDS011;4324;42.012;24.872;2024-03-08T11:04:46;13.53;;;12.07;;
8572;SDS011;4324;42.012;24.872;2024-03-08T11:07:15;13.53;;;12.20;;
8572;SDS011;4324;42.012;24.872;2024-03-08T11:09:48;12.73;;;11.50;;
8572;SDS011;4324;42.012;24.872;2024-03-08T11:12:18;14.10;;;12.63;;
8572;SDS011;4324;42.012;24.872;2024-03-08T11:14:46;12.60;;;11.40;;
8572;SDS011;4324;42.012;24.872;2024-03-08T11:17:15;14.50;;;13.00;;
8572;SDS011;4324;42.012;24.872;2024-03-08T11:19:46;13.90;;;12.50;;
8572;SDS011;4324;42.012;24.872;2024-03-08T11:22:20;14.53;;;12.80;;
8572;SDS011;4324;42.012;24.872;2024-03-08T11:24:51;13.70;;;12.33;;
8572;SDS011;4324;42.012;24.872;2024-03-08T11:27:18;14.90;;;13.30;;
8572;SDS011;4324;42.012;24.872;2024-03-08T11:29:58;13.73;;;12.33;;
8572;SDS011;4324;42.012;24.872;2024-03-08T11:32:34;14.70;;;12.93;;
8572;SDS011;4324;42.012;24.872;2024-03-08T11:35:02;13.00;;;11.80;;
8572;SDS011;4324;42.012;24.872;2024-03-08T11:37:34;13.53;;;12.13;;
8572;SDS011;4324;42.012;24.872;2024-03-08T11:40:06;13.63;;;11.93;;
8572;SDS011;4324;42.012;24.872;2024-03-08T11:42:43;16.30;;;14.20;;
8572;SDS011;4324;42.012;24.872;2024-03-08T11:45:12;16.37;;;13.90;;
8572;SDS011;4324;42.012;24.872;2024-03-08T11:47:39;18.40;;;14.07;;
8572;SDS011;4324;42.012;24.872;2024-03-08T11:50:09;18.27;;;16.03;;
8572;SDS011;4324;42.012;24.872;2024-03-08T11:52:37;18.03;;;15.87;;
8572;SDS011;4324;42.012;24.872;2024-03-08T11:55:06;17.83;;;15.97;;
8572;SDS011;4324;42.012;24.872;2024-03-08T11:57:34;18.07;;;15.93;;
8572;SDS011;4324;42.012;24.872;2024-03-08T12:00:01;21.87;;;19.57;;
8572;SDS011;4324;42.012;24.872;2024-03-08T12:02:32;20.40;;;18.30;;
8572;SDS011;4324;42.012;24.872;2024-03-08T12:05:01;20.03;;;17.70;;
8572;SDS011;4324;42.012;24.872;2024-03-08T12:07:28;19.30;;;17.30;;
8572;SDS011;4324;42.012;24.872;2024-03-08T12:10:18;18.70;;;16.80;;
8572;SDS011;4324;42.012;24.872;2024-03-08T12:12:47;18.07;;;16.27;;
8572;SDS011;4324;42.012;24.872;2024-03-08T12:15:16;19.23;;;17.23;;
8572;SDS011;4324;42.012;24.872;2024-03-08T12:17:44;21.00;;;18.70;;
8572;SDS011;4324;42.012;24.872;2024-03-08T12:20:17;19.67;;;16.63;;
8572;SDS011;4324;42.012;24.872;2024-03-08T12:22:47;15.10;;;13.50;;
8572;SDS011;4324;42.012;24.872;2024-03-08T12:25:14;17.97;;;15.30;;
8572;SDS011;4324;42.012;24.872;2024-03-08T12:27:43;16.77;;;14.97;;
8572;SDS011;4324;42.012;24.872;2024-03-08T12:30:18;13.57;;;12.17;;
8572;SDS011;4324;42.012;24.872;2024-03-08T12:32:51;12.77;;;11.57;;
8572;SDS011;4324;42.012;24.872;2024-03-08T12:35:22;12.33;;;11.03;;
8572;SDS011;4324;42.012;24.872;2024-03-08T12:37:50;16.10;;;14.40;;
8572;SDS011;4324;42.012;24.872;2024-03-08T12:40:19;13.67;;;12.13;;
8572;SDS011;4324;42.012;24.872;2024-03-08T12:42:53;16.70;;;13.53;;
8572;SDS011;4324;42.012;24.872;2024-03-08T12:45:21;11.40;;;10.20;;
8572;SDS011;4324;42.012;24.872;2024-03-08T12:47:49;13.60;;;11.50;;
8572;SDS011;4324;42.012;24.872;2024-03-08T12:50:16;49.03;;;38.47;;
8572;SDS011;4324;42.012;24.872;2024-03-08T12:52:43;18.10;;;14.80;;
8572;SDS011;4324;42.012;24.872;2024-03-08T12:55:10;12.33;;;10.93;;
8572;SDS011;4324;42.012;24.872;2024-03-08T12:57:37;19.43;;;14.40;;
8572;SDS011;4324;42.012;24.872;2024-03-08T13:00:06;16.07;;;13.77;;
8572;SDS011;4324;42.012;24.872;2024-03-08T13:02:38;11.57;;;9.50;;
8572;SDS011;4324;42.012;24.872;2024-03-08T13:05:07;14.03;;;11.03;;
8572;SDS011;4324;42.012;24.872;2024-03-08T13:07:35;13.30;;;10.80;;
8572;SDS011;4324;42.012;24.872;2024-03-08T13:10:04;12.67;;;11.10;;
8572;SDS011;4324;42.012;24.872;2024-03-08T13:12:32;11.90;;;9.87;;
8572;SDS011;4324;42.012;24.872;2024-03-08T13:15:01;10.60;;;8.70;;
8572;SDS011;4324;42.012;24.872;2024-03-08T13:17:31;11.90;;;9.67;;
8572;SDS011;4324;42.012;24.872;2024-03-08T13:19:58;25.83;;;12.97;;
8572;SDS011;4324;42.012;24.872;2024-03-08T13:22:25;13.93;;;11.37;;
8572;SDS011;4324;42.012;24.872;2024-03-08T13:24:53;9.37;;;8.20;;
8572;SDS011;4324;42.012;24.872;2024-03-08T13:27:19;10.23;;;8.83;;
8572;SDS011;4324;42.012;24.872;2024-03-08T13:29:47;15.33;;;11.13;;
8572;SDS011;4324;42.012;24.872;2024-03-08T13:32:14;13.03;;;9.27;;
8572;SDS011;4324;42.012;24.872;2024-03-08T13:34:43;11.43;;;9.43;;
8572;SDS011;4324;42.012;24.872;2024-03-08T13:37:10;13.23;;;8.90;;
8572;SDS011;4324;42.012;24.872;2024-03-08T13:39:37;9.77;;;8.77;;
8572;SDS011;4324;42.012;24.872;2024-03-08T13:42:09;11.70;;;9.50;;
8572;SDS011;4324;42.012;24.872;2024-03-08T13:44:39;15.70;;;11.67;;
8572;SDS011;4324;42.012;24.872;2024-03-08T13:47:09;13.93;;;10.17;;
8572;SDS011;4324;42.012;24.872;2024-03-08T13:49:37;10.87;;;9.77;;
8572;SDS011;4324;42.012;24.872;2024-03-08T13:52:05;12.50;;;10.87;;
8572;SDS011;4324;42.012;24.872;2024-03-08T13:54:33;13.60;;;8.97;;
8572;SDS011;4324;42.012;24.872;2024-03-08T13:57:00;13.90;;;10.53;;
8572;SDS011;4324;42.012;24.872;2024-03-08T13:59:29;12.07;;;9.67;;
8572;SDS011;4324;42.012;24.872;2024-03-08T14:01:58;14.87;;;12.40;;
8572;SDS011;4324;42.012;24.872;2024-03-08T14:04:26;12.53;;;11.23;;
8572;SDS011;4324;42.012;24.872;2024-03-08T14:06:53;13.97;;;11.83;;
8572;SDS011;4324;42.012;24.872;2024-03-08T14:09:24;14.63;;;13.07;;
8572;SDS011;4324;42.012;24.872;2024-03-08T14:11:50;16.90;;;13.07;;
8572;SDS011;4324;42.012;24.872;2024-03-08T14:14:19;12.53;;;11.23;;
8572;SDS011;4324;42.012;24.872;2024-03-08T14:16:48;17.67;;;12.83;;
8572;SDS011;4324;42.012;24.872;2024-03-08T14:19:18;15.43;;;12.40;;
8572;SDS011;4324;42.012;24.872;2024-03-08T14:21:45;13.13;;;11.80;;
8572;SDS011;4324;42.012;24.872;2024-03-08T14:24:13;14.83;;;12.73;;
8572;SDS011;4324;42.012;24.872;2024-03-08T14:26:42;13.03;;;11.70;;
8572;SDS011;4324;42.012;24.872;2024-03-08T14:29:09;16.20;;;13.07;;
8572;SDS011;4324;42.012;24.872;2024-03-08T14:31:37;15.67;;;12.13;;
8572;SDS011;4324;42.012;24.872;2024-03-08T14:34:06;15.43;;;11.37;;
8572;SDS011;4324;42.012;24.872;2024-03-08T14:36:33;13.57;;;10.90;;
8572;SDS011;4324;42.012;24.872;2024-03-08T14:38:59;15.97;;;11.67;;
8572;SDS011;4324;42.012;24.872;2024-03-08T14:41:26;13.20;;;11.27;;